Time;durP1;ratioP1;P1;durP2;ratioP2;P2;SDS_P1;SDS_P2;PMS_P1;PMS_P2;Temp;Humidity;BMP_temperature;BMP_pressure;BME280_temperature;BME280_humidity;BME280_pressure;Samples;Min_cycle;Max_cycle;Signal;HPM_P1;HPM_P2
2023/12/19 00:00:10;;;;;;;34.97;19.70;;;6.20;99.90;;;;;;5075508;28;20176;-71
2023/12/19 00:02:36;;;;;;;35.57;20.07;;;6.30;99.90;;;;;;5093749;28;20194;-71
2023/12/19 00:05:02;;;;;;;38.03;20.20;;;6.30;99.90;;;;;;5093768;28;20252;-70
2023/12/19 00:07:29;;;;;;;31.47;19.00;;;6.20;99.90;;;;;;5093296;28;20202;-71
2023/12/19 00:09:55;;;;;;;37.87;20.23;;;6.30;99.90;;;;;;5093533;28;20167;-70
2023/12/19 00:12:21;;;;;;;35.10;19.13;;;6.30;99.90;;;;;;5093500;28;20207;-70
2023/12/19 00:14:46;;;;;;;33.13;19.07;;;6.30;99.90;;;;;;5093211;28;20619;-71
2023/12/19 00:17:12;;;;;;;37.37;20.17;;;6.30;99.90;;;;;;5093525;28;20286;-71
2023/12/19 00:19:37;;;;;;;34.93;20.30;;;6.30;99.90;;;;;;5093337;28;20254;-70
2023/12/19 00:22:03;;;;;;;39.13;20.80;;;6.30;99.90;;;;;;5093047;28;20208;-69
2023/12/19 00:24:29;;;;;;;34.97;19.37;;;6.20;99.90;;;;;;5093412;28;20168;-70
2023/12/19 00:26:54;;;;;;;36.63;19.10;;;6.30;99.90;;;;;;5093053;28;20231;-71
2023/12/19 00:29:20;;;;;;;33.87;19.50;;;6.20;99.90;;;;;;5093446;28;20183;-70
2023/12/19 00:31:45;;;;;;;37.20;20.77;;;6.10;99.90;;;;;;5093497;28;20215;-70
2023/12/19 00:34:12;;;;;;;33.33;21.27;;;6.10;99.90;;;;;;5075020;28;20220;-71
2023/12/19 00:36:37;;;;;;;36.63;21.93;;;6.10;99.90;;;;;;5093042;28;20172;-70
2023/12/19 00:39:04;;;;;;;33.90;19.30;;;6.10;99.90;;;;;;5094697;28;20559;-70
2023/12/19 00:41:29;;;;;;;36.60;20.03;;;6.20;99.90;;;;;;5097680;28;20160;-70
2023/12/19 00:43:55;;;;;;;36.40;21.40;;;6.10;99.90;;;;;;5097303;28;20167;-70
2023/12/19 00:46:21;;;;;;;37.13;21.13;;;6.10;99.90;;;;;;5079003;28;20516;-69
2023/12/19 00:48:46;;;;;;;41.47;22.47;;;6.10;99.90;;;;;;5097388;28;20160;-70
2023/12/19 00:51:12;;;;;;;40.97;22.17;;;6.10;99.90;;;;;;5097145;28;20253;-70
2023/12/19 00:53:38;;;;;;;35.50;21.67;;;6.10;99.90;;;;;;5097115;28;20623;-69
2023/12/19 00:56:11;;;;;;;37.83;22.87;;;6.10;99.90;;;;;;5097139;28;20654;-70
2023/12/19 00:58:37;;;;;;;41.53;21.43;;;6.10;99.90;;;;;;5097104;28;20214;-69
2023/12/19 01:01:04;;;;;;;43.53;22.23;;;6.00;99.90;;;;;;5097303;28;20623;-70
2023/12/19 01:03:29;;;;;;;39.83;22.67;;;6.00;99.90;;;;;;5097041;28;20172;-69
2023/12/19 01:05:55;;;;;;;41.20;22.87;;;6.00;99.90;;;;;;5096604;28;20167;-69
2023/12/19 01:08:21;;;;;;;42.27;23.57;;;6.00;99.90;;;;;;5097033;28;20683;-69
2023/12/19 01:10:46;;;;;;;36.10;23.03;;;6.00;99.90;;;;;;5096791;28;20167;-69
2023/12/19 01:13:12;;;;;;;37.40;22.13;;;6.00;99.90;;;;;;5096947;28;20187;-70
2023/12/19 01:15:38;;;;;;;39.30;23.80;;;6.00;99.90;;;;;;5096745;28;20187;-70
2023/12/19 01:18:03;;;;;;;40.63;23.30;;;6.10;99.90;;;;;;5096665;28;20260;-71
2023/12/19 01:20:29;;;;;;;40.60;22.97;;;6.00;99.90;;;;;;5096236;28;20253;-70
2023/12/19 01:22:54;;;;;;;33.97;20.73;;;6.00;99.90;;;;;;5096624;28;20613;-70
2023/12/19 01:25:20;;;;;;;42.80;23.13;;;6.20;99.90;;;;;;5096551;28;20256;-70
2023/12/19 01:27:45;;;;;;;37.60;22.53;;;6.00;99.90;;;;;;5096140;28;20228;-70
2023/12/19 01:30:11;;;;;;;37.40;22.33;;;6.00;99.90;;;;;;5096531;28;20203;-70
2023/12/19 01:32:37;;;;;;;43.33;23.87;;;6.00;99.90;;;;;;5078268;28;20216;-70
2023/12/19 01:35:03;;;;;;;38.53;22.30;;;6.00;99.90;;;;;;5096028;28;20237;-71
2023/12/19 01:37:28;;;;;;;37.33;23.20;;;6.10;99.90;;;;;;5096194;28;20233;-69
2023/12/19 01:39:54;;;;;;;41.97;24.27;;;6.10;99.90;;;;;;5096550;28;20180;-71
2023/12/19 01:42:19;;;;;;;38.77;22.53;;;6.10;99.90;;;;;;5096285;28;20192;-68
2023/12/19 01:45:01;;;;;;;42.80;24.03;;;6.20;99.90;;;;;;5096265;28;20175;-69
2023/12/19 01:47:26;;;;;;;41.27;23.90;;;6.20;99.90;;;;;;5096090;28;20639;-70
2023/12/19 01:49:52;;;;;;;41.27;22.50;;;6.20;99.90;;;;;;5095124;28;20229;-70
2023/12/19 01:52:17;;;;;;;38.47;23.27;;;6.10;99.90;;;;;;5095982;28;20210;-70
2023/12/19 01:54:43;;;;;;;42.23;24.67;;;6.10;99.90;;;;;;5096000;28;20247;-71
2023/12/19 01:57:08;;;;;;;35.23;22.13;;;6.10;99.90;;;;;;5095994;28;20725;-70
2023/12/19 01:59:35;;;;;;;37.87;22.60;;;6.20;99.90;;;;;;5096003;28;20184;-70
2023/12/19 02:02:00;;;;;;;39.27;22.50;;;6.30;99.90;;;;;;5096027;28;20643;-70
2023/12/19 02:04:26;;;;;;;38.90;23.27;;;6.20;99.90;;;;;;5077290;28;20267;-71
2023/12/19 02:06:51;;;;;;;39.23;22.07;;;6.20;99.90;;;;;;5095718;28;20182;-71
2023/12/19 02:09:17;;;;;;;40.87;23.53;;;6.20;99.90;;;;;;5095738;28;20522;-69
2023/12/19 02:11:43;;;;;;;39.03;22.57;;;6.10;99.90;;;;;;5095700;28;20264;-71
2023/12/19 02:14:08;;;;;;;36.47;23.00;;;6.20;99.90;;;;;;5095537;28;20178;-71
2023/12/19 02:16:34;;;;;;;40.60;24.50;;;6.20;99.90;;;;;;5095556;28;20195;-70
2023/12/19 02:19:01;;;;;;;43.60;24.90;;;6.30;99.90;;;;;;5095038;28;20172;-69
2023/12/19 02:21:27;;;;;;;42.87;23.30;;;6.20;99.90;;;;;;5095363;28;20176;-70
2023/12/19 02:23:52;;;;;;;39.83;21.67;;;6.30;99.90;;;;;;5095201;28;20198;-70
2023/12/19 02:26:18;;;;;;;43.27;23.73;;;6.20;99.90;;;;;;5094998;28;20218;-70
2023/12/19 02:28:43;;;;;;;40.07;22.23;;;6.10;99.90;;;;;;5095412;28;20175;-71
2023/12/19 02:31:09;;;;;;;40.33;23.03;;;6.30;99.90;;;;;;5095415;28;20659;-70
2023/12/19 02:33:34;;;;;;;46.43;24.33;;;6.20;99.90;;;;;;5076733;28;20645;-71
2023/12/19 02:36:02;;;;;;;41.40;23.57;;;6.30;99.90;;;;;;5095270;28;20175;-71
2023/12/19 02:38:27;;;;;;;46.67;24.77;;;6.20;99.90;;;;;;5095029;28;20195;-69
2023/12/19 02:40:53;;;;;;;50.37;24.63;;;6.30;99.90;;;;;;5095484;28;20639;-69
2023/12/19 02:43:18;;;;;;;40.70;22.40;;;6.30;99.90;;;;;;5095004;28;20694;-70
2023/12/19 02:45:44;;;;;;;42.93;21.57;;;6.20;99.90;;;;;;5095103;28;20182;-70
2023/12/19 02:48:09;;;;;;;42.83;23.50;;;6.20;99.90;;;;;;5094943;28;20168;-70
2023/12/19 02:50:35;;;;;;;42.90;23.30;;;6.30;99.90;;;;;;5094956;28;20700;-70
2023/12/19 02:53:00;;;;;;;45.87;24.23;;;6.30;99.90;;;;;;5094521;28;20207;-69
2023/12/19 02:55:26;;;;;;;42.07;23.13;;;6.40;99.90;;;;;;5094688;28;20179;-69
2023/12/19 02:57:51;;;;;;;39.57;23.77;;;6.40;99.90;;;;;;5094716;28;20180;-69
2023/12/19 03:00:17;;;;;;;40.37;23.43;;;6.40;99.90;;;;;;5094751;28;20662;-69
2023/12/19 03:02:43;;;;;;;37.77;22.63;;;6.40;99.90;;;;;;5093420;28;20171;-70
2023/12/19 03:05:09;;;;;;;39.27;23.07;;;6.40;99.90;;;;;;5094628;28;20657;-70
2023/12/19 03:07:34;;;;;;;38.40;20.83;;;6.50;99.90;;;;;;5094517;28;20180;-69
2023/12/19 03:10:05;;;;;;;40.90;23.33;;;6.40;99.90;;;;;;5094356;28;20168;-69
2023/12/19 03:12:31;;;;;;;33.90;20.80;;;6.40;99.90;;;;;;5077195;28;20195;-69
2023/12/19 03:14:56;;;;;;;37.67;22.60;;;6.40;99.90;;;;;;5094109;28;20220;-70
2023/12/19 03:17:22;;;;;;;42.27;23.03;;;6.40;99.90;;;;;;5094406;28;20196;-70
2023/12/19 03:19:47;;;;;;;45.43;23.83;;;6.40;99.90;;;;;;5094509;28;20167;-70
2023/12/19 03:22:13;;;;;;;42.63;23.17;;;6.40;99.90;;;;;;5094176;28;20176;-68
2023/12/19 03:24:39;;;;;;;37.13;22.83;;;6.50;99.90;;;;;;5094277;28;20167;-69
2023/12/19 03:27:04;;;;;;;38.50;21.50;;;6.40;99.90;;;;;;5094165;28;20227;-70
2023/12/19 03:29:32;;;;;;;39.00;22.27;;;6.40;99.90;;;;;;5094042;28;20630;-70
2023/12/19 03:31:57;;;;;;;38.10;22.13;;;6.50;99.90;;;;;;5094191;28;20207;-69
2023/12/19 03:34:23;;;;;;;38.00;20.97;;;6.50;99.90;;;;;;5094105;28;20164;-70
2023/12/19 03:36:49;;;;;;;34.40;20.80;;;6.50;99.90;;;;;;5093956;28;20175;-69
2023/12/19 03:39:14;;;;;;;32.60;20.40;;;6.60;99.90;;;;;;5076300;28;20188;-69
2023/12/19 03:41:40;;;;;;;37.67;21.50;;;6.50;99.90;;;;;;5093788;28;20175;-71
2023/12/19 03:44:05;;;;;;;35.00;21.20;;;6.60;99.90;;;;;;5093600;28;20168;-70
2023/12/19 03:46:31;;;;;;;35.50;20.27;;;6.60;99.90;;;;;;5093857;28;20175;-70
2023/12/19 03:48:56;;;;;;;35.57;21.10;;;6.70;99.90;;;;;;5093992;28;20164;-69
2023/12/19 03:51:22;;;;;;;35.13;19.83;;;6.60;99.90;;;;;;5093547;28;20200;-70
2023/12/19 03:53:48;;;;;;;34.23;20.07;;;6.60;99.90;;;;;;5093610;28;20182;-69
2023/12/19 03:56:14;;;;;;;35.60;20.63;;;6.60;99.90;;;;;;5093444;28;20218;-70
2023/12/19 03:58:39;;;;;;;34.17;18.83;;;6.60;99.90;;;;;;5093061;28;20176;-70
2023/12/19 04:01:05;;;;;;;34.20;19.30;;;6.60;99.90;;;;;;5093591;28;20172;-69
2023/12/19 04:03:31;;;;;;;34.93;19.13;;;6.60;99.90;;;;;;5093574;28;20202;-69
2023/12/19 04:05:56;;;;;;;36.87;20.23;;;6.60;99.90;;;;;;5093455;28;20639;-69
2023/12/19 04:08:22;;;;;;;33.50;18.63;;;6.60;99.90;;;;;;5075581;28;20191;-69
2023/12/19 04:10:47;;;;;;;30.70;18.47;;;6.70;99.90;;;;;;5075279;28;20659;-69
2023/12/19 04:13:13;;;;;;;33.07;19.53;;;6.60;99.90;;;;;;5092635;28;20175;-70
2023/12/19 04:15:38;;;;;;;33.90;19.93;;;6.70;99.90;;;;;;5093450;28;20296;-69
2023/12/19 04:18:04;;;;;;;29.60;18.47;;;6.70;99.90;;;;;;5093073;28;20654;-69
2023/12/19 04:20:30;;;;;;;29.90;19.43;;;6.60;99.90;;;;;;5093043;28;20175;-69
2023/12/19 04:22:55;;;;;;;33.23;19.47;;;6.70;99.90;;;;;;5092938;28;20187;-69
2023/12/19 04:25:21;;;;;;;32.17;19.33;;;6.70;99.90;;;;;;5093246;28;20160;-69
2023/12/19 04:27:46;;;;;;;31.63;19.23;;;6.70;99.90;;;;;;5092621;28;20227;-70
2023/12/19 04:30:12;;;;;;;31.07;20.10;;;6.60;99.90;;;;;;5093098;28;20176;-69
2023/12/19 04:32:37;;;;;;;28.30;18.67;;;6.70;99.90;;;;;;5074716;28;20214;-70
2023/12/19 04:35:04;;;;;;;26.77;18.37;;;6.90;99.90;;;;;;5092863;28;20592;-67
2023/12/19 04:37:30;;;;;;;27.97;18.60;;;6.80;99.90;;;;;;5092610;28;20180;-69
2023/12/19 04:39:57;;;;;;;31.00;18.83;;;6.90;99.90;;;;;;5093322;28;20646;-70
2023/12/19 04:42:23;;;;;;;28.63;17.67;;;6.80;99.90;;;;;;5092255;28;20176;-69
2023/12/19 04:44:48;;;;;;;29.00;16.60;;;7.00;99.90;;;;;;5092951;28;20175;-69
2023/12/19 04:47:14;;;;;;;24.83;16.97;;;7.00;99.90;;;;;;5093104;28;20657;-70
2023/12/19 04:49:40;;;;;;;27.20;16.40;;;7.00;99.90;;;;;;5092570;28;20232;-69
2023/12/19 04:52:05;;;;;;;25.30;16.43;;;7.00;99.90;;;;;;5092486;28;20222;-69
2023/12/19 04:54:31;;;;;;;23.63;14.83;;;7.00;99.90;;;;;;5092851;28;20172;-69
2023/12/19 04:56:57;;;;;;;23.53;14.77;;;7.00;99.90;;;;;;5092249;28;20172;-68
2023/12/19 04:59:23;;;;;;;26.00;16.17;;;6.90;99.90;;;;;;5092411;28;20191;-69
2023/12/19 05:01:48;;;;;;;27.10;17.40;;;6.90;99.90;;;;;;5092605;28;20257;-69
2023/12/19 05:04:14;;;;;;;23.67;15.00;;;7.00;99.90;;;;;;5092740;28;20160;-69
2023/12/19 05:06:39;;;;;;;21.33;14.87;;;7.00;99.90;;;;;;5092337;28;20172;-69
2023/12/19 05:09:05;;;;;;;18.70;12.47;;;7.00;99.90;;;;;;5092146;28;20164;-69
2023/12/19 05:11:31;;;;;;;21.53;14.97;;;7.00;99.90;;;;;;5091963;28;20203;-70
2023/12/19 05:13:56;;;;;;;19.50;14.20;;;7.00;99.90;;;;;;5074456;28;20524;-69
2023/12/19 05:16:22;;;;;;;22.17;14.67;;;7.10;99.90;;;;;;5092357;28;20215;-69
2023/12/19 05:18:47;;;;;;;22.33;14.53;;;7.10;99.90;;;;;;5092154;28;20225;-69
2023/12/19 05:21:13;;;;;;;22.73;15.20;;;7.10;99.90;;;;;;5091924;28;20281;-69
2023/12/19 05:23:40;;;;;;;20.57;13.87;;;7.10;99.90;;;;;;5091924;28;20200;-69
2023/12/19 05:26:07;;;;;;;19.83;14.00;;;7.20;99.90;;;;;;5094832;28;20191;-69
2023/12/19 05:28:34;;;;;;;21.97;13.73;;;7.20;99.90;;;;;;5095964;28;20238;-70
2023/12/19 05:31:00;;;;;;;19.37;13.40;;;7.20;99.90;;;;;;5095904;28;20164;-70
2023/12/19 05:33:29;;;;;;;25.60;13.70;;;7.10;99.90;;;;;;5095756;28;20175;-69
2023/12/19 05:35:55;;;;;;;20.10;13.80;;;7.20;99.90;;;;;;5096306;28;20174;-70
2023/12/19 05:38:22;;;;;;;19.10;13.40;;;7.20;99.90;;;;;;5095917;28;20639;-69
2023/12/19 05:40:48;;;;;;;18.00;13.70;;;7.20;99.90;;;;;;5095643;28;20259;-69
2023/12/19 05:43:14;;;;;;;19.13;13.83;;;7.30;99.90;;;;;;5095772;28;20223;-69
2023/12/19 05:45:40;;;;;;;19.70;13.07;;;7.50;99.90;;;;;;5076770;28;20657;-70
2023/12/19 05:48:06;;;;;;;19.07;13.07;;;7.50;99.90;;;;;;5095023;28;20182;-69
2023/12/19 05:50:32;;;;;;;19.47;13.13;;;7.40;99.90;;;;;;5095482;28;20172;-68
2023/12/19 05:52:58;;;;;;;18.53;13.33;;;7.40;99.90;;;;;;5095224;28;20211;-69
2023/12/19 05:55:23;;;;;;;20.47;13.47;;;7.40;99.90;;;;;;5094873;28;20172;-70
2023/12/19 05:57:49;;;;;;;18.47;12.60;;;7.40;99.90;;;;;;5094969;28;20217;-69
2023/12/19 06:00:16;;;;;;;23.60;13.40;;;7.30;99.90;;;;;;5077035;28;20168;-70
2023/12/19 06:02:41;;;;;;;20.13;12.80;;;7.30;99.90;;;;;;5094956;28;20266;-69
2023/12/19 06:05:07;;;;;;;19.80;13.20;;;7.30;99.90;;;;;;5095085;28;20191;-70
2023/12/19 06:07:41;;;;;;;18.63;12.53;;;7.20;99.90;;;;;;5095070;28;20172;-69
2023/12/19 06:10:12;;;;;;;20.80;13.17;;;7.20;99.90;;;;;;5094395;28;20164;-70
2023/12/19 06:12:38;;;;;;;19.70;13.33;;;7.20;99.90;;;;;;5094026;28;20200;-69
2023/12/19 06:15:12;;;;;;;25.40;13.73;;;7.30;99.90;;;;;;5076153;28;20168;-70
2023/12/19 06:17:43;;;;;;;19.03;12.07;;;7.20;99.90;;;;;;5094490;28;20225;-70
2023/12/19 06:20:12;;;;;;;26.30;13.07;;;7.30;99.90;;;;;;5094394;28;20202;-70
2023/12/19 06:22:39;;;;;;;21.87;12.63;;;7.30;99.90;;;;;;5094372;28;20168;-70
2023/12/19 06:25:05;;;;;;;24.00;14.20;;;7.30;99.90;;;;;;5093885;28;20180;-69
2023/12/19 06:27:32;;;;;;;23.23;13.97;;;7.30;99.90;;;;;;5061716;28;20225;-70
2023/12/19 06:29:57;;;;;;;20.70;13.70;;;7.30;99.90;;;;;;5054221;28;20219;-70
2023/12/19 06:32:23;;;;;;;20.27;12.67;;;7.30;99.90;;;;;;5053724;28;20212;-69
2023/12/19 06:34:48;;;;;;;23.00;14.40;;;7.30;99.90;;;;;;5052418;28;20633;-70
2023/12/19 06:37:14;;;;;;;21.97;12.23;;;7.20;99.90;;;;;;5053599;28;20173;-70
2023/12/19 06:39:39;;;;;;;24.63;13.70;;;7.30;99.90;;;;;;5053164;28;20177;-69
2023/12/19 06:42:05;;;;;;;23.03;14.43;;;7.20;99.90;;;;;;5054113;28;20177;-70
2023/12/19 06:44:31;;;;;;;22.73;14.57;;;7.30;99.90;;;;;;5053659;28;20183;-70
2023/12/19 06:46:56;;;;;;;25.73;14.13;;;7.30;99.90;;;;;;5053771;28;20199;-69
2023/12/19 06:49:22;;;;;;;20.73;12.33;;;7.30;99.90;;;;;;5053140;28;20264;-70
2023/12/19 06:51:48;;;;;;;20.63;13.63;;;7.30;99.90;;;;;;5053907;28;20675;-69
2023/12/19 06:54:14;;;;;;;21.90;13.60;;;7.30;99.90;;;;;;5053454;28;20248;-69
2023/12/19 06:56:40;;;;;;;17.93;12.47;;;7.30;99.90;;;;;;5053246;28;20165;-70
2023/12/19 06:59:06;;;;;;;25.03;14.47;;;7.30;99.90;;;;;;5053025;28;20166;-69
2023/12/19 07:01:32;;;;;;;20.97;13.97;;;7.30;99.90;;;;;;5052289;28;20177;-69
2023/12/19 07:03:57;;;;;;;21.10;13.53;;;7.30;99.90;;;;;;5052742;28;20193;-71
2023/12/19 07:06:23;;;;;;;23.03;14.50;;;7.30;99.90;;;;;;5053070;28;20248;-70
2023/12/19 07:08:50;;;;;;;25.03;14.60;;;7.30;99.90;;;;;;5052384;28;20169;-69
2023/12/19 07:11:16;;;;;;;22.07;14.40;;;7.30;99.90;;;;;;5052234;28;20197;-71
2023/12/19 07:13:43;;;;;;;24.83;13.87;;;7.30;99.90;;;;;;5052802;28;20234;-69
2023/12/19 07:16:17;;;;;;;24.60;14.20;;;7.20;99.90;;;;;;5052287;28;20269;-68
2023/12/19 07:18:43;;;;;;;22.87;13.37;;;7.20;99.90;;;;;;5052709;28;20192;-69
2023/12/19 07:21:18;;;;;;;19.20;13.27;;;7.30;99.90;;;;;;5052556;28;20161;-69
2023/12/19 07:23:43;;;;;;;21.90;13.67;;;7.30;99.90;;;;;;5052513;28;20501;-69
2023/12/19 07:26:22;;;;;;;25.13;13.40;;;7.30;99.90;;;;;;5052121;28;20177;-69
2023/12/19 07:28:50;;;;;;;21.20;13.03;;;7.40;99.90;;;;;;5092921;28;20202;-68
2023/12/19 07:31:31;;;;;;;22.47;13.50;;;7.30;99.90;;;;;;5091715;28;20273;-70
2023/12/19 07:34:04;;;;;;;21.97;12.80;;;7.40;99.90;;;;;;5091831;28;20168;-69
2023/12/19 07:36:32;;;;;;;20.27;12.80;;;7.30;99.90;;;;;;5090599;28;20206;-70
2023/12/19 07:38:58;;;;;;;21.47;13.47;;;7.30;99.90;;;;;;5091066;28;20591;-70
2023/12/19 07:41:26;;;;;;;27.43;13.63;;;7.40;99.90;;;;;;5091037;28;20187;-70
2023/12/19 07:43:52;;;;;;;20.67;12.80;;;7.50;99.90;;;;;;5092600;28;20176;-70
2023/12/19 07:46:19;;;;;;;20.50;13.23;;;7.40;99.90;;;;;;5092580;28;20233;-71
2023/12/19 07:48:45;;;;;;;23.47;13.50;;;7.50;99.90;;;;;;5091125;28;20627;-71
2023/12/19 07:51:23;;;;;;;23.53;13.37;;;7.50;99.90;;;;;;5090930;28;20198;-71
2023/12/19 07:53:49;;;;;;;19.30;12.60;;;7.60;99.90;;;;;;5090179;28;20179;-71
2023/12/19 07:56:14;;;;;;;22.67;13.30;;;7.50;99.90;;;;;;5090227;28;20168;-70
2023/12/19 07:58:40;;;;;;;22.43;12.87;;;7.50;99.90;;;;;;5090349;28;20180;-72
2023/12/19 08:01:09;;;;;;;21.53;13.30;;;7.60;99.90;;;;;;5079882;28;20219;-72
2023/12/19 08:03:35;;;;;;;20.93;13.00;;;7.50;99.90;;;;;;5081972;28;20187;-72
2023/12/19 08:06:00;;;;;;;20.17;13.60;;;7.60;99.90;;;;;;5088478;28;20254;-72
2023/12/19 08:08:26;;;;;;;18.67;12.07;;;7.60;99.90;;;;;;5071757;28;20271;-71
2023/12/19 08:10:52;;;;;;;22.77;13.10;;;7.60;99.90;;;;;;5086200;28;20187;-75
2023/12/19 08:13:22;;;;;;;21.70;12.63;;;7.60;99.90;;;;;;5087886;28;20267;-74
2023/12/19 08:15:48;;;;;;;24.37;13.77;;;7.60;99.90;;;;;;5070266;28;20191;-75
2023/12/19 08:18:14;;;;;;;18.67;12.27;;;7.60;99.90;;;;;;5086299;28;20229;-72
2023/12/19 08:20:41;;;;;;;21.97;13.30;;;7.60;99.90;;;;;;5084117;28;20176;-72
2023/12/19 08:23:07;;;;;;;20.00;11.33;;;7.70;99.90;;;;;;5078374;28;20175;-71
2023/12/19 08:25:33;;;;;;;23.93;14.07;;;7.70;99.90;;;;;;5081962;28;20219;-73
2023/12/19 08:27:58;;;;;;;23.50;12.47;;;7.60;99.90;;;;;;5081545;28;20227;-72
2023/12/19 08:30:27;;;;;;;20.90;12.13;;;7.70;99.90;;;;;;5081258;28;20180;-72
2023/12/19 08:32:55;;;;;;;22.27;12.70;;;7.70;99.90;;;;;;5082109;28;20216;-73
2023/12/19 08:35:21;;;;;;;20.13;13.10;;;7.80;99.90;;;;;;5082868;28;20281;-74
2023/12/19 08:37:48;;;;;;;24.50;13.00;;;7.80;99.90;;;;;;5074150;28;20669;-72
2023/12/19 08:40:13;;;;;;;28.20;13.47;;;7.80;99.90;;;;;;5081144;28;20184;-72
2023/12/19 08:42:40;;;;;;;22.63;13.23;;;7.70;99.90;;;;;;5084791;28;20202;-72
2023/12/19 08:45:12;;;;;;;24.27;14.40;;;7.70;99.90;;;;;;5081677;28;20196;-73
2023/12/19 08:47:38;;;;;;;23.77;12.47;;;7.70;99.90;;;;;;5088175;28;20180;-71
2023/12/19 08:50:07;;;;;;;20.90;13.07;;;7.60;99.90;;;;;;5078807;28;20195;-72
2023/12/19 08:52:33;;;;;;;19.57;13.67;;;7.70;99.90;;;;;;5062933;28;20203;-74
2023/12/19 08:55:00;;;;;;;20.40;13.03;;;7.70;99.90;;;;;;5057260;28;20189;-73
2023/12/19 08:57:26;;;;;;;19.20;13.20;;;7.70;99.90;;;;;;5078850;28;20187;-73
2023/12/19 08:59:51;;;;;;;19.83;13.13;;;7.70;99.90;;;;;;5081061;28;20172;-74
2023/12/19 09:02:17;;;;;;;22.60;12.97;;;7.70;99.90;;;;;;5093980;28;20188;-73
2023/12/19 09:04:43;;;;;;;21.77;13.80;;;7.70;99.90;;;;;;5090702;28;20195;-73
2023/12/19 09:07:08;;;;;;;18.37;12.63;;;7.70;99.90;;;;;;5093471;28;20182;-73
2023/12/19 09:09:34;;;;;;;23.47;14.23;;;7.70;99.90;;;;;;5093080;28;20615;-74
2023/12/19 09:11:59;;;;;;;23.97;13.60;;;7.80;99.90;;;;;;5095041;28;20225;-72
2023/12/19 09:14:25;;;;;;;18.97;12.73;;;7.80;99.90;;;;;;5094771;28;20327;-74
2023/12/19 09:16:50;;;;;;;29.37;13.60;;;7.80;99.90;;;;;;5094940;28;20192;-73
2023/12/19 09:19:17;;;;;;;19.03;12.67;;;7.90;99.90;;;;;;5095376;28;20172;-72
2023/12/19 09:21:43;;;;;;;21.27;13.77;;;7.80;99.90;;;;;;5093012;28;20184;-73
2023/12/19 09:24:09;;;;;;;19.20;13.07;;;7.90;99.90;;;;;;5076424;28;20278;-73
2023/12/19 09:26:37;;;;;;;20.87;13.63;;;7.80;99.90;;;;;;5095317;28;20270;-72
2023/12/19 09:29:05;;;;;;;21.90;13.13;;;7.80;99.90;;;;;;5088274;28;20209;-73
2023/12/19 09:31:30;;;;;;;22.33;13.20;;;7.80;99.90;;;;;;5090945;28;20211;-72
2023/12/19 09:33:56;;;;;;;20.97;12.70;;;7.90;99.90;;;;;;5093629;28;20825;-71
2023/12/19 09:36:24;;;;;;;21.73;14.20;;;7.80;99.90;;;;;;5094136;28;20179;-73
2023/12/19 09:38:50;;;;;;;21.53;13.37;;;7.80;99.90;;;;;;5094266;28;20171;-69
2023/12/19 09:41:17;;;;;;;21.80;13.47;;;7.80;99.90;;;;;;5093968;28;20172;-72
2023/12/19 09:43:43;;;;;;;21.60;14.00;;;7.70;99.90;;;;;;5094574;28;20233;-72
2023/12/19 09:46:10;;;;;;;20.37;13.87;;;7.70;99.90;;;;;;5094718;28;20175;-72
2023/12/19 09:48:36;;;;;;;20.77;13.73;;;7.80;99.90;;;;;;5094790;28;20175;-71
2023/12/19 09:51:11;;;;;;;22.80;14.30;;;7.70;99.90;;;;;;5095051;28;20259;-72
2023/12/19 09:53:37;;;;;;;23.17;13.80;;;7.70;99.90;;;;;;5087507;28;20236;-72
2023/12/19 09:56:03;;;;;;;22.87;13.90;;;7.80;99.90;;;;;;5094146;28;20239;-72
2023/12/19 09:58:28;;;;;;;24.87;14.43;;;7.70;99.90;;;;;;5092798;28;20184;-73
2023/12/19 10:00:58;;;;;;;23.53;14.10;;;7.70;99.90;;;;;;5093852;28;20198;-72
2023/12/19 10:03:24;;;;;;;23.13;14.50;;;7.70;99.90;;;;;;5094210;28;20521;-71
2023/12/19 10:05:50;;;;;;;23.13;12.97;;;7.70;99.90;;;;;;5074762;28;20184;-71
2023/12/19 10:08:15;;;;;;;23.77;12.80;;;7.80;99.90;;;;;;5094549;28;20309;-70
2023/12/19 10:10:54;;;;;;;25.47;13.40;;;7.70;99.90;;;;;;5094403;28;20192;-69
2023/12/19 10:13:31;;;;;;;23.27;14.10;;;7.80;99.90;;;;;;5094120;28;20223;-71
2023/12/19 10:16:11;;;;;;;20.40;14.13;;;7.80;99.90;;;;;;5092878;28;20260;-73
2023/12/19 10:18:37;;;;;;;22.10;13.17;;;7.80;99.90;;;;;;5093778;28;20171;-72
2023/12/19 10:21:11;;;;;;;23.13;13.13;;;7.70;99.90;;;;;;5075905;28;20176;-72
2023/12/19 10:23:43;;;;;;;25.67;13.50;;;7.70;99.90;;;;;;5094423;28;20228;-71
2023/12/19 10:26:10;;;;;;;19.10;13.30;;;7.80;99.90;;;;;;5094207;28;20164;-72
2023/12/19 10:28:37;;;;;;;25.43;11.83;;;7.80;99.90;;;;;;5094506;28;20251;-73
2023/12/19 10:31:06;;;;;;;20.60;13.17;;;7.80;99.90;;;;;;5093011;28;20218;-74
2023/12/19 10:33:49;;;;;;;18.83;12.13;;;7.80;99.90;;;;;;5093396;28;20536;-72
2023/12/19 10:36:27;;;;;;;21.77;13.33;;;7.90;99.90;;;;;;5091757;28;20184;-72
2023/12/19 10:38:55;;;;;;;20.40;12.50;;;7.90;99.90;;;;;;5093742;28;20180;-71
2023/12/19 10:41:25;;;;;;;20.77;12.97;;;7.90;99.90;;;;;;5093585;28;20595;-73
2023/12/19 10:43:52;;;;;;;20.23;11.83;;;8.00;99.90;;;;;;5094234;28;20676;-70
2023/12/19 10:46:19;;;;;;;23.10;12.27;;;8.00;99.90;;;;;;5091336;28;20171;-72
2023/12/19 10:48:47;;;;;;;20.83;12.70;;;8.00;99.90;;;;;;5085512;28;20676;-74
2023/12/19 10:51:19;;;;;;;21.60;13.70;;;8.00;99.90;;;;;;5093225;28;20168;-73
2023/12/19 10:53:49;;;;;;;21.93;12.43;;;8.00;99.90;;;;;;5092288;28;20255;-74
2023/12/19 10:56:24;;;;;;;20.23;11.87;;;8.00;99.90;;;;;;5092298;28;20168;-75
2023/12/19 10:58:58;;;;;;;22.57;13.30;;;8.10;99.90;;;;;;5092049;28;20179;-73
2023/12/19 11:01:26;;;;;;;35.07;24.33;;;8.10;99.90;;;;;;5093109;28;20171;-72
2023/12/19 11:03:59;;;;;;;21.60;12.93;;;8.20;99.90;;;;;;5092842;28;20170;-72
2023/12/19 11:06:31;;;;;;;23.37;13.60;;;8.10;99.90;;;;;;5081933;28;20234;-73
2023/12/19 11:09:04;;;;;;;19.00;12.67;;;8.10;99.90;;;;;;5092084;28;20190;-73
2023/12/19 11:11:37;;;;;;;18.60;13.70;;;8.10;99.90;;;;;;5093321;28;20286;-72
2023/12/19 11:14:05;;;;;;;19.77;13.07;;;8.20;99.90;;;;;;5084906;28;20277;-73
2023/12/19 11:16:49;;;;;;;17.47;12.27;;;8.10;99.90;;;;;;5084186;28;20200;-74
2023/12/19 11:19:53;;;;;;;22.30;12.73;;;8.10;99.90;;;;;;5087189;28;20273;-70
2023/12/19 11:22:25;;;;;;;20.23;12.17;;;8.10;99.90;;;;;;5007476;28;20187;-73
2023/12/19 11:25:01;;;;;;;19.90;12.97;;;8.20;99.90;;;;;;4995737;28;20194;-71
2023/12/19 11:27:40;;;;;;;19.50;11.97;;;8.10;99.90;;;;;;5049987;28;20352;-71
2023/12/19 11:30:26;;;;;;;18.03;12.13;;;8.10;99.90;;;;;;5091972;28;20175;-72
2023/12/19 11:32:52;;;;;;;19.40;12.27;;;8.10;99.90;;;;;;5091053;28;20303;-72
2023/12/19 11:35:17;;;;;;;21.27;12.40;;;8.10;99.90;;;;;;5086079;28;20183;-71
2023/12/19 11:37:44;;;;;;;22.53;13.03;;;8.10;99.90;;;;;;5075759;28;20217;-72
2023/12/19 11:40:18;;;;;;;21.80;12.67;;;8.20;99.90;;;;;;5080311;28;20362;-71
2023/12/19 11:42:45;;;;;;;18.87;13.37;;;8.20;99.90;;;;;;5086018;28;20188;-70
2023/12/19 11:45:16;;;;;;;20.00;13.23;;;8.20;99.90;;;;;;5089550;28;20665;-72
2023/12/19 11:47:42;;;;;;;19.90;13.30;;;8.20;99.90;;;;;;5081099;28;20196;-70
2023/12/19 11:50:07;;;;;;;21.43;12.87;;;8.30;99.90;;;;;;5072144;28;20549;-72
2023/12/19 11:52:37;;;;;;;19.27;12.70;;;8.30;99.90;;;;;;5061011;28;20212;-72
2023/12/19 11:55:05;;;;;;;17.13;13.00;;;8.30;99.90;;;;;;5090111;28;20638;-73
2023/12/19 11:57:31;;;;;;;19.57;13.40;;;8.30;99.90;;;;;;5081247;28;20177;-72
2023/12/19 11:59:57;;;;;;;21.27;13.30;;;8.30;99.90;;;;;;5082209;28;20184;-72
2023/12/19 12:02:33;;;;;;;24.87;13.70;;;8.20;99.90;;;;;;5085982;28;20187;-70
2023/12/19 12:05:04;;;;;;;24.73;12.90;;;8.30;99.90;;;;;;5082193;28;20639;-69
2023/12/19 12:07:30;;;;;;;22.40;13.10;;;8.30;99.90;;;;;;5058393;28;20180;-70
2023/12/19 12:10:06;;;;;;;19.63;12.97;;;8.30;99.90;;;;;;5089331;28;20232;-72
2023/12/19 12:12:33;;;;;;;20.57;13.40;;;8.30;99.90;;;;;;5087033;28;20207;-72
2023/12/19 12:15:19;;;;;;;18.50;12.57;;;8.20;99.90;;;;;;5083374;28;20266;-71
2023/12/19 12:18:04;;;;;;;18.47;12.53;;;8.20;99.90;;;;;;5091777;28;22007;-71
2023/12/19 12:20:34;;;;;;;19.03;13.03;;;8.20;99.90;;;;;;5076612;28;20513;-71
2023/12/19 12:23:00;;;;;;;23.13;13.33;;;8.30;99.90;;;;;;5089455;28;20183;-72
2023/12/19 12:25:26;;;;;;;22.83;15.13;;;8.30;99.90;;;;;;5091460;28;20220;-71
2023/12/19 12:27:56;;;;;;;21.63;14.53;;;8.30;99.90;;;;;;5055803;28;20225;-73
2023/12/19 12:30:24;;;;;;;20.53;14.10;;;8.40;99.90;;;;;;5050524;28;20268;-71
2023/12/19 12:32:51;;;;;;;21.70;13.53;;;8.40;99.90;;;;;;5049703;28;20216;-72
2023/12/19 12:35:28;;;;;;;18.83;13.37;;;8.40;99.90;;;;;;5053376;28;20635;-72